sensor_id;sensor_type;location;lat;lon;timestamp;temperature;humidity
27258;DHT22;62045;49.986;8.672;2023-02-01T00:02:52;16.20;53.10
27258;DHT22;62045;49.986;8.672;2023-02-01T00:07:52;16.40;52.90
27258;DHT22;62045;49.986;8.672;2023-02-01T00:12:54;16.50;52.70
27258;DHT22;62045;49.986;8.672;2023-02-01T00:17:56;16.50;52.50
27258;DHT22;62045;49.986;8.672;2023-02-01T00:22:56;16.50;52.40
27258;DHT22;62045;49.986;8.672;2023-02-01T00:27:58;16.50;52.40
27258;DHT22;62045;49.986;8.672;2023-02-01T00:32:59;16.50;52.50
27258;DHT22;62045;49.986;8.672;2023-02-01T00:38:00;16.40;52.60
27258;DHT22;62045;49.986;8.672;2023-02-01T00:43:02;16.30;52.70
27258;DHT22;62045;49.986;8.672;2023-02-01T00:48:03;16.20;52.70
27258;DHT22;62045;49.986;8.672;2023-02-01T00:53:04;16.20;52.90
27258;DHT22;62045;49.986;8.672;2023-02-01T00:58:06;16.20;53.00
27258;DHT22;62045;49.986;8.672;2023-02-01T01:03:07;16.20;52.90
27258;DHT22;62045;49.986;8.672;2023-02-01T01:08:08;16.30;52.90
27258;DHT22;62045;49.986;8.672;2023-02-01T01:13:11;16.40;52.60
27258;DHT22;62045;49.986;8.672;2023-02-01T01:18:12;16.50;52.40
27258;DHT22;62045;49.986;8.672;2023-02-01T01:23:13;16.50;52.30
27258;DHT22;62045;49.986;8.672;2023-02-01T01:28:15;16.50;52.40
27258;DHT22;62045;49.986;8.672;2023-02-01T01:33:15;16.50;52.40
27258;DHT22;62045;49.986;8.672;2023-02-01T01:38:16;16.40;52.40
27258;DHT22;62045;49.986;8.672;2023-02-01T01:43:20;16.40;52.50
27258;DHT22;62045;49.986;8.672;2023-02-01T01:48:25;16.30;52.70
27258;DHT22;62045;49.986;8.672;2023-02-01T01:53:30;16.30;52.80
27258;DHT22;62045;49.986;8.672;2023-02-01T01:58:34;16.30;52.90
27258;DHT22;62045;49.986;8.672;2023-02-01T02:03:39;16.30;52.80
27258;DHT22;62045;49.986;8.672;2023-02-01T02:08:39;16.40;52.80
27258;DHT22;62045;49.986;8.672;2023-02-01T02:13:47;16.50;52.70
27258;DHT22;62045;49.986;8.672;2023-02-01T02:18:57;16.50;52.40
27258;DHT22;62045;49.986;8.672;2023-02-01T02:24:32;16.50;52.30
27258;DHT22;62045;49.986;8.672;2023-02-01T02:35:11;16.50;52.40
27258;DHT22;62045;49.986;8.672;2023-02-01T02:40:22;16.40;52.50
27258;DHT22;62045;49.986;8.672;2023-02-01T02:45:28;16.30;52.50
27258;DHT22;62045;49.986;8.672;2023-02-01T02:50:35;16.30;52.70
27258;DHT22;62045;49.986;8.672;2023-02-01T02:55:37;16.20;52.80
27258;DHT22;62045;49.986;8.672;2023-02-01T03:00:39;16.20;53.10
27258;DHT22;62045;49.986;8.672;2023-02-01T03:05:44;16.20;52.80
27258;DHT22;62045;49.986;8.672;2023-02-01T03:10:54;16.30;52.70
27258;DHT22;62045;49.986;8.672;2023-02-01T03:16:02;16.40;52.50
27258;DHT22;62045;49.986;8.672;2023-02-01T03:21:11;16.50;52.30
27258;DHT22;62045;49.986;8.672;2023-02-01T03:26:15;16.50;52.20
27258;DHT22;62045;49.986;8.672;2023-02-01T03:31:17;16.50;52.20
27258;DHT22;62045;49.986;8.672;2023-02-01T03:36:25;16.40;52.30
27258;DHT22;62045;49.986;8.672;2023-02-01T03:41:30;16.40;52.40
27258;DHT22;62045;49.986;8.672;2023-02-01T03:46:37;16.30;52.40
27258;DHT22;62045;49.986;8.672;2023-02-01T03:51:40;16.30;52.60
27258;DHT22;62045;49.986;8.672;2023-02-01T03:56:44;16.20;52.70
27258;DHT22;62045;49.986;8.672;2023-02-01T04:01:46;16.20;52.70
27258;DHT22;62045;49.986;8.672;2023-02-01T04:06:48;16.20;52.70
27258;DHT22;62045;49.986;8.672;2023-02-01T04:11:49;16.30;52.50
27258;DHT22;62045;49.986;8.672;2023-02-01T04:16:50;16.40;52.40
27258;DHT22;62045;49.986;8.672;2023-02-01T04:21:52;16.50;52.20
27258;DHT22;62045;49.986;8.672;2023-02-01T04:26:52;16.50;52.10
27258;DHT22;62045;49.986;8.672;2023-02-01T04:31:53;16.50;52.70
27258;DHT22;62045;49.986;8.672;2023-02-01T04:36:55;16.40;52.20
27258;DHT22;62045;49.986;8.672;2023-02-01T04:41:56;16.40;52.30
27258;DHT22;62045;49.986;8.672;2023-02-01T04:46:56;16.30;52.40
27258;DHT22;62045;49.986;8.672;2023-02-01T04:51:59;16.30;52.50
27258;DHT22;62045;49.986;8.672;2023-02-01T04:56:59;16.20;52.60
27258;DHT22;62045;49.986;8.672;2023-02-01T05:02:00;16.10;52.70
27258;DHT22;62045;49.986;8.672;2023-02-01T05:07:02;16.20;52.80
27258;DHT22;62045;49.986;8.672;2023-02-01T05:12:03;16.20;52.90
27258;DHT22;62045;49.986;8.672;2023-02-01T05:17:04;16.40;52.60
27258;DHT22;62045;49.986;8.672;2023-02-01T05:22:06;16.60;52.30
27258;DHT22;62045;49.986;8.672;2023-02-01T05:27:06;16.80;51.90
27258;DHT22;62045;49.986;8.672;2023-02-01T05:32:09;16.80;52.30
27258;DHT22;62045;49.986;8.672;2023-02-01T05:37:11;16.90;51.70
27258;DHT22;62045;49.986;8.672;2023-02-01T05:42:12;16.80;51.60
27258;DHT22;62045;49.986;8.672;2023-02-01T05:47:13;16.80;51.70
27258;DHT22;62045;49.986;8.672;2023-02-01T05:52:15;16.70;51.80
27258;DHT22;62045;49.986;8.672;2023-02-01T05:57:16;16.60;51.90
27258;DHT22;62045;49.986;8.672;2023-02-01T06:02:16;16.50;52.10
27258;DHT22;62045;49.986;8.672;2023-02-01T06:07:18;16.40;52.20
27258;DHT22;62045;49.986;8.672;2023-02-01T06:12:19;16.40;52.40
27258;DHT22;62045;49.986;8.672;2023-02-01T06:17:20;16.30;52.50
27258;DHT22;62045;49.986;8.672;2023-02-01T06:22:22;16.40;52.40
27258;DHT22;62045;49.986;8.672;2023-02-01T06:27:22;16.60;52.20
27258;DHT22;62045;49.986;8.672;2023-02-01T06:32:23;16.70;51.90
27258;DHT22;62045;49.986;8.672;2023-02-01T06:37:25;16.70;51.80
27258;DHT22;62045;49.986;8.672;2023-02-01T06:42:26;16.70;52.40
27258;DHT22;62045;49.986;8.672;2023-02-01T06:47:27;16.70;51.80
27258;DHT22;62045;49.986;8.672;2023-02-01T06:52:29;16.60;51.90
27258;DHT22;62045;49.986;8.672;2023-02-01T06:57:30;16.50;52.00
27258;DHT22;62045;49.986;8.672;2023-02-01T07:02:30;16.40;52.10
27258;DHT22;62045;49.986;8.672;2023-02-01T07:07:33;16.40;52.30
27258;DHT22;62045;49.986;8.672;2023-02-01T07:12:33;16.30;52.40
27258;DHT22;62045;49.986;8.672;2023-02-01T07:17:34;16.20;52.50
27258;DHT22;62045;49.986;8.672;2023-02-01T07:22:36;16.30;52.60
27258;DHT22;62045;49.986;8.672;2023-02-01T07:27:37;16.40;52.40
27258;DHT22;62045;49.986;8.672;2023-02-01T07:32:38;16.50;52.10
27258;DHT22;62045;49.986;8.672;2023-02-01T07:37:40;16.60;51.90
27258;DHT22;62045;49.986;8.672;2023-02-01T07:42:41;16.60;51.80
27258;DHT22;62045;49.986;8.672;2023-02-01T07:47:41;16.60;51.80
27258;DHT22;62045;49.986;8.672;2023-02-01T07:52:43;16.60;51.90
27258;DHT22;62045;49.986;8.672;2023-02-01T07:57:44;16.50;52.10
27258;DHT22;62045;49.986;8.672;2023-02-01T08:02:45;16.40;52.40
27258;DHT22;62045;49.986;8.672;2023-02-01T08:07:50;16.40;52.50
27258;DHT22;62045;49.986;8.672;2023-02-01T08:12:50;16.30;52.60
27258;DHT22;62045;49.986;8.672;2023-02-01T08:17:51;16.20;52.70
27258;DHT22;62045;49.986;8.672;2023-02-01T08:22:53;16.20;52.80
27258;DHT22;62045;49.986;8.672;2023-02-01T08:27:54;16.30;52.80
27258;DHT22;62045;49.986;8.672;2023-02-01T08:32:55;16.40;52.60
27258;DHT22;62045;49.986;8.672;2023-02-01T08:37:57;16.60;52.30
27258;DHT22;62045;49.986;8.672;2023-02-01T08:42:58;16.70;52.10
27258;DHT22;62045;49.986;8.672;2023-02-01T08:47:58;16.80;52.00
27258;DHT22;62045;49.986;8.672;2023-02-01T08:53:00;16.80;51.90
27258;DHT22;62045;49.986;8.672;2023-02-01T08:58:01;16.70;52.00
27258;DHT22;62045;49.986;8.672;2023-02-01T09:03:02;16.70;52.10
27258;DHT22;62045;49.986;8.672;2023-02-01T09:08:05;16.60;52.10
27258;DHT22;62045;49.986;8.672;2023-02-01T09:13:06;16.50;52.30
27258;DHT22;62045;49.986;8.672;2023-02-01T09:18:07;16.40;52.40
27258;DHT22;62045;49.986;8.672;2023-02-01T09:23:09;16.40;52.50
27258;DHT22;62045;49.986;8.672;2023-02-01T09:28:10;16.30;52.60
27258;DHT22;62045;49.986;8.672;2023-02-01T09:33:10;16.20;52.70
27258;DHT22;62045;49.986;8.672;2023-02-01T09:38:12;16.30;53.40
27258;DHT22;62045;49.986;8.672;2023-02-01T09:43:24;16.50;53.00
27258;DHT22;62045;49.986;8.672;2023-02-01T09:48:33;16.70;52.20
27258;DHT22;62045;49.986;8.672;2023-02-01T09:53:39;16.90;51.90
27258;DHT22;62045;49.986;8.672;2023-02-01T09:58:43;17.00;51.20
27258;DHT22;62045;49.986;8.672;2023-02-01T10:03:45;17.00;50.40
27258;DHT22;62045;49.986;8.672;2023-02-01T10:09:08;17.00;50.10
27258;DHT22;62045;49.986;8.672;2023-02-01T10:14:17;16.90;49.80
27258;DHT22;62045;49.986;8.672;2023-02-01T10:19:28;16.80;49.60
27258;DHT22;62045;49.986;8.672;2023-02-01T10:24:40;16.70;49.30
27258;DHT22;62045;49.986;8.672;2023-02-01T10:29:44;16.60;49.00
27258;DHT22;62045;49.986;8.672;2023-02-01T10:34:49;16.60;48.70
27258;DHT22;62045;49.986;8.672;2023-02-01T10:39:55;16.70;47.90
27258;DHT22;62045;49.986;8.672;2023-02-01T10:44:56;16.90;47.30
27258;DHT22;62045;49.986;8.672;2023-02-01T10:50:04;17.10;46.90
27258;DHT22;62045;49.986;8.672;2023-02-01T10:55:34;17.10;47.00
27258;DHT22;62045;49.986;8.672;2023-02-01T11:00:46;17.10;46.30
27258;DHT22;62045;49.986;8.672;2023-02-01T11:05:47;17.00;46.40
27258;DHT22;62045;49.986;8.672;2023-02-01T11:10:57;17.00;46.60
27258;DHT22;62045;49.986;8.672;2023-02-01T11:15:59;16.80;46.30
27258;DHT22;62045;49.986;8.672;2023-02-01T11:21:03;16.80;46.80
27258;DHT22;62045;49.986;8.672;2023-02-01T11:26:12;16.70;47.00
27258;DHT22;62045;49.986;8.672;2023-02-01T11:31:14;16.70;47.20
27258;DHT22;62045;49.986;8.672;2023-02-01T11:36:16;16.80;47.20
27258;DHT22;62045;49.986;8.672;2023-02-01T11:41:23;16.90;47.10
27258;DHT22;62045;49.986;8.672;2023-02-01T11:46:32;17.30;47.90
27258;DHT22;62045;49.986;8.672;2023-02-01T11:51:43;18.30;45.90
27258;DHT22;62045;49.986;8.672;2023-02-01T11:56:58;18.80;44.80
27258;DHT22;62045;49.986;8.672;2023-02-01T12:02:07;19.10;44.30
27258;DHT22;62045;49.986;8.672;2023-02-01T12:07:16;19.10;44.80
27258;DHT22;62045;49.986;8.672;2023-02-01T12:12:25;19.00;44.60
27258;DHT22;62045;49.986;8.672;2023-02-01T12:17:57;18.70;45.20
27258;DHT22;62045;49.986;8.672;2023-02-01T12:23:11;18.50;45.70
27258;DHT22;62045;49.986;8.672;2023-02-01T12:28:24;18.30;46.20
27258;DHT22;62045;49.986;8.672;2023-02-01T12:33:35;18.10;46.70
27258;DHT22;62045;49.986;8.672;2023-02-01T12:38:46;17.90;47.00
27258;DHT22;62045;49.986;8.672;2023-02-01T12:43:53;17.80;47.40
27258;DHT22;62045;49.986;8.672;2023-02-01T12:48:59;17.60;47.60
27258;DHT22;62045;49.986;8.672;2023-02-01T12:54:03;17.50;47.90
27258;DHT22;62045;49.986;8.672;2023-02-01T12:59:19;17.40;48.10
27258;DHT22;62045;49.986;8.672;2023-02-01T13:04:26;17.20;48.40
27258;DHT22;62045;49.986;8.672;2023-02-01T13:09:30;17.10;48.60
27258;DHT22;62045;49.986;8.672;2023-02-01T13:14:40;17.10;48.90
27258;DHT22;62045;49.986;8.672;2023-02-01T13:19:45;17.00;49.00
27258;DHT22;62045;49.986;8.672;2023-02-01T13:24:50;17.10;49.00
27258;DHT22;62045;49.986;8.672;2023-02-01T13:29:56;17.10;49.50
27258;DHT22;62045;49.986;8.672;2023-02-01T13:35:27;17.20;49.00
27258;DHT22;62045;49.986;8.672;2023-02-01T13:40:36;17.20;49.00
27258;DHT22;62045;49.986;8.672;2023-02-01T13:45:47;17.10;49.10
27258;DHT22;62045;49.986;8.672;2023-02-01T13:50:52;17.00;49.20
27258;DHT22;62045;49.986;8.672;2023-02-01T13:55:59;17.00;49.40
27258;DHT22;62045;49.986;8.672;2023-02-01T14:01:33;16.90;49.50
27258;DHT22;62045;49.986;8.672;2023-02-01T14:06:41;16.80;49.80
27258;DHT22;62045;49.986;8.672;2023-02-01T14:11:44;16.80;49.90
27258;DHT22;62045;49.986;8.672;2023-02-01T14:22:34;16.60;50.10
27258;DHT22;62045;49.986;8.672;2023-02-01T14:27:36;16.70;50.30
27258;DHT22;62045;49.986;8.672;2023-02-01T14:32:39;16.80;50.20
27258;DHT22;62045;49.986;8.672;2023-02-01T14:37:40;16.80;50.00
27258;DHT22;62045;49.986;8.672;2023-02-01T14:42:44;16.90;49.80
27258;DHT22;62045;49.986;8.672;2023-02-01T14:47:48;16.90;49.80
27258;DHT22;62045;49.986;8.672;2023-02-01T14:52:58;16.90;49.80
27258;DHT22;62045;49.986;8.672;2023-02-01T14:58:02;16.80;49.90
27258;DHT22;62045;49.986;8.672;2023-02-01T15:03:33;16.80;50.00
27258;DHT22;62045;49.986;8.672;2023-02-01T15:08:37;16.70;50.10
27258;DHT22;62045;49.986;8.672;2023-02-01T15:13:39;16.60;50.30
27258;DHT22;62045;49.986;8.672;2023-02-01T15:18:41;16.50;50.40
27258;DHT22;62045;49.986;8.672;2023-02-01T15:23:42;16.50;50.50
27258;DHT22;62045;49.986;8.672;2023-02-01T15:28:43;16.50;50.90
27258;DHT22;62045;49.986;8.672;2023-02-01T15:33:57;16.50;51.20
27258;DHT22;62045;49.986;8.672;2023-02-01T15:39:18;16.60;51.00
27258;DHT22;62045;49.986;8.672;2023-02-01T15:44:28;16.70;50.80
27258;DHT22;62045;49.986;8.672;2023-02-01T15:49:36;16.70;50.60
27258;DHT22;62045;49.986;8.672;2023-02-01T15:54:43;16.70;50.50
27258;DHT22;62045;49.986;8.672;2023-02-01T15:59:46;16.70;50.60
27258;DHT22;62045;49.986;8.672;2023-02-01T16:04:48;16.70;50.60
27258;DHT22;62045;49.986;8.672;2023-02-01T16:09:52;16.60;50.60
27258;DHT22;62045;49.986;8.672;2023-02-01T16:14:53;16.60;50.70
27258;DHT22;62045;49.986;8.672;2023-02-01T16:19:55;16.50;50.80
27258;DHT22;62045;49.986;8.672;2023-02-01T16:24:56;16.50;50.90
27258;DHT22;62045;49.986;8.672;2023-02-01T16:29:57;16.40;51.10
27258;DHT22;62045;49.986;8.672;2023-02-01T16:34:59;16.40;51.00
27258;DHT22;62045;49.986;8.672;2023-02-01T16:39:59;16.50;51.10
27258;DHT22;62045;49.986;8.672;2023-02-01T16:45:00;16.60;50.90
27258;DHT22;62045;49.986;8.672;2023-02-01T16:50:02;16.70;50.80
27258;DHT22;62045;49.986;8.672;2023-02-01T16:55:09;16.70;50.70
27258;DHT22;62045;49.986;8.672;2023-02-01T17:00:14;16.80;50.70
27258;DHT22;62045;49.986;8.672;2023-02-01T17:05:16;16.80;50.80
27258;DHT22;62045;49.986;8.672;2023-02-01T17:10:22;16.70;50.80
27258;DHT22;62045;49.986;8.672;2023-02-01T17:15:25;16.60;50.90
27258;DHT22;62045;49.986;8.672;2023-02-01T17:20:29;16.60;50.90
27258;DHT22;62045;49.986;8.672;2023-02-01T17:25:30;16.50;51.20
27258;DHT22;62045;49.986;8.672;2023-02-01T17:30:31;16.50;51.30
27258;DHT22;62045;49.986;8.672;2023-02-01T17:35:33;16.40;51.20
27258;DHT22;62045;49.986;8.672;2023-02-01T17:40:34;16.40;51.40
27258;DHT22;62045;49.986;8.672;2023-02-01T17:45:37;16.50;51.30
27258;DHT22;62045;49.986;8.672;2023-02-01T17:50:40;16.60;51.20
27258;DHT22;62045;49.986;8.672;2023-02-01T17:55:43;16.70;50.90
27258;DHT22;62045;49.986;8.672;2023-02-01T18:00:46;16.70;50.80
27258;DHT22;62045;49.986;8.672;2023-02-01T18:05:49;16.70;50.70
27258;DHT22;62045;49.986;8.672;2023-02-01T18:10:51;16.70;50.80
27258;DHT22;62045;49.986;8.672;2023-02-01T18:15:53;16.60;51.20
27258;DHT22;62045;49.986;8.672;2023-02-01T18:20:55;16.60;53.50
27258;DHT22;62045;49.986;8.672;2023-02-01T18:25:56;16.70;54.90
27258;DHT22;62045;49.986;8.672;2023-02-01T18:30:57;16.70;54.70
27258;DHT22;62045;49.986;8.672;2023-02-01T18:36:00;16.60;54.50
27258;DHT22;62045;49.986;8.672;2023-02-01T18:41:00;16.50;54.50
27258;DHT22;62045;49.986;8.672;2023-02-01T18:46:01;16.50;54.70
27258;DHT22;62045;49.986;8.672;2023-02-01T18:51:04;16.40;55.00
27258;DHT22;62045;49.986;8.672;2023-02-01T18:56:05;16.40;55.20
27258;DHT22;62045;49.986;8.672;2023-02-01T19:01:12;16.50;55.00
27258;DHT22;62045;49.986;8.672;2023-02-01T19:06:15;16.70;54.50
27258;DHT22;62045;49.986;8.672;2023-02-01T19:11:16;16.80;54.10
27258;DHT22;62045;49.986;8.672;2023-02-01T19:16:17;16.90;54.50
27258;DHT22;62045;49.986;8.672;2023-02-01T19:21:19;16.90;53.80
27258;DHT22;62045;49.986;8.672;2023-02-01T19:26:20;16.80;53.70
27258;DHT22;62045;49.986;8.672;2023-02-01T19:31:21;16.80;53.70
27258;DHT22;62045;49.986;8.672;2023-02-01T19:36:23;16.70;53.70
27258;DHT22;62045;49.986;8.672;2023-02-01T19:41:23;16.70;54.00
27258;DHT22;62045;49.986;8.672;2023-02-01T19:46:24;16.70;54.20
27258;DHT22;62045;49.986;8.672;2023-02-01T19:51:26;16.60;54.20
27258;DHT22;62045;49.986;8.672;2023-02-01T19:56:27;16.60;54.10
27258;DHT22;62045;49.986;8.672;2023-02-01T20:01:27;16.60;54.20
27258;DHT22;62045;49.986;8.672;2023-02-01T20:06:31;16.60;54.20
27258;DHT22;62045;49.986;8.672;2023-02-01T20:11:32;16.60;54.30
27258;DHT22;62045;49.986;8.672;2023-02-01T20:16:32;16.70;54.40
27258;DHT22;62045;49.986;8.672;2023-02-01T20:21:35;16.80;54.10
27258;DHT22;62045;49.986;8.672;2023-02-01T20:26:36;16.90;53.90
27258;DHT22;62045;49.986;8.672;2023-02-01T20:31:37;16.90;53.80
27258;DHT22;62045;49.986;8.672;2023-02-01T20:36:39;16.90;53.70
27258;DHT22;62045;49.986;8.672;2023-02-01T20:41:40;16.80;53.70
27258;DHT22;62045;49.986;8.672;2023-02-01T20:46:40;16.80;53.80
27258;DHT22;62045;49.986;8.672;2023-02-01T20:51:42;16.70;53.80
27258;DHT22;62045;49.986;8.672;2023-02-01T20:56:43;16.60;53.80
27258;DHT22;62045;49.986;8.672;2023-02-01T21:01:44;16.50;53.90
27258;DHT22;62045;49.986;8.672;2023-02-01T21:06:46;16.50;54.10
27258;DHT22;62045;49.986;8.672;2023-02-01T21:11:46;16.40;54.10
27258;DHT22;62045;49.986;8.672;2023-02-01T21:16:47;16.40;54.10
27258;DHT22;62045;49.986;8.672;2023-02-01T21:21:49;16.40;54.00
27258;DHT22;62045;49.986;8.672;2023-02-01T21:26:50;16.40;54.00
27258;DHT22;62045;49.986;8.672;2023-02-01T21:31:51;16.40;54.00
27258;DHT22;62045;49.986;8.672;2023-02-01T21:36:53;16.40;54.10
27258;DHT22;62045;49.986;8.672;2023-02-01T21:41:54;16.30;54.10
27258;DHT22;62045;49.986;8.672;2023-02-01T21:46:55;16.30;54.10
27258;DHT22;62045;49.986;8.672;2023-02-01T21:51:57;16.20;54.10
27258;DHT22;62045;49.986;8.672;2023-02-01T21:56:57;16.20;54.30
27258;DHT22;62045;49.986;8.672;2023-02-01T22:01:58;16.10;54.30
27258;DHT22;62045;49.986;8.672;2023-02-01T22:07:00;16.10;54.40
27258;DHT22;62045;49.986;8.672;2023-02-01T22:12:01;16.10;54.30
27258;DHT22;62045;49.986;8.672;2023-02-01T22:17:02;16.00;54.30
27258;DHT22;62045;49.986;8.672;2023-02-01T22:22:05;16.00;54.30
27258;DHT22;62045;49.986;8.672;2023-02-01T22:27:06;16.00;54.40
27258;DHT22;62045;49.986;8.672;2023-02-01T22:32:07;16.00;54.50
27258;DHT22;62045;49.986;8.672;2023-02-01T22:37:09;15.90;54.50
27258;DHT22;62045;49.986;8.672;2023-02-01T22:42:09;15.90;54.50
27258;DHT22;62045;49.986;8.672;2023-02-01T22:47:10;15.90;54.50
27258;DHT22;62045;49.986;8.672;2023-02-01T22:52:12;15.90;54.50
27258;DHT22;62045;49.986;8.672;2023-02-01T22:57:13;16.00;54.30
27258;DHT22;62045;49.986;8.672;2023-02-01T23:02:13;16.10;54.40
27258;DHT22;62045;49.986;8.672;2023-02-01T23:07:16;16.30;54.20
27258;DHT22;62045;49.986;8.672;2023-02-01T23:12:16;16.40;53.80
27258;DHT22;62045;49.986;8.672;2023-02-01T23:17:17;16.60;53.40
27258;DHT22;62045;49.986;8.672;2023-02-01T23:22:19;16.70;53.10
27258;DHT22;62045;49.986;8.672;2023-02-01T23:27:20;16.80;53.00
27258;DHT22;62045;49.986;8.672;2023-02-01T23:32:20;16.80;53.00
27258;DHT22;62045;49.986;8.672;2023-02-01T23:37:23;16.80;53.00
27258;DHT22;62045;49.986;8.672;2023-02-01T23:42:23;16.70;53.00
27258;DHT22;62045;49.986;8.672;2023-02-01T23:47:24;16.70;53.10
27258;DHT22;62045;49.986;8.672;2023-02-01T23:52:26;16.60;53.20
27258;DHT22;62045;49.986;8.672;2023-02-01T23:57:27;16.50;53.30
